Time;durP1;ratioP1;P1;durP2;ratioP2;P2;SDS_P1;SDS_P2;PMS_P1;PMS_P2;Temp;Humidity;BMP_temperature;BMP_pressure;BME280_temperature;BME280_humidity;BME280_pressure;Samples;Min_cycle;Max_cycle;Signal;HPM_P1;HPM_P2
2022/04/17 00:00:03;;;;;;;1.30;0.90;;;18.90;47.40;;;;;;5124263;27;45365;-78
2022/04/17 00:02:30;;;;;;;1.55;1.00;;;18.80;47.20;;;;;;5129536;27;47385;-78
2022/04/17 00:04:57;;;;;;;1.30;0.93;;;18.80;47.70;;;;;;5124799;27;45197;-78
2022/04/17 00:07:23;;;;;;;2.03;1.00;;;18.80;47.70;;;;;;5121442;27;45389;-78
2022/04/17 00:09:50;;;;;;;2.13;1.00;;;18.80;47.30;;;;;;5117329;27;45421;-78
2022/04/17 00:12:17;;;;;;;2.05;1.10;;;18.80;47.70;;;;;;5128116;27;45352;-77
2022/04/17 00:14:45;;;;;;;1.48;0.90;;;18.80;47.50;;;;;;5127385;27;45333;-78
2022/04/17 00:17:13;;;;;;;1.42;1.00;;;18.80;47.60;;;;;;5108565;27;45176;-78
2022/04/17 00:19:39;;;;;;;1.85;1.08;;;18.80;47.00;;;;;;5119059;27;45202;-78
2022/04/17 00:22:06;;;;;;;1.77;1.20;;;18.90;47.20;;;;;;5126300;27;46279;-78
2022/04/17 00:24:33;;;;;;;2.08;0.82;;;18.90;47.00;;;;;;5126752;27;45600;-78
2022/04/17 00:27:00;;;;;;;1.85;1.02;;;18.80;46.90;;;;;;5122838;27;45150;-78
2022/04/17 00:29:27;;;;;;;1.38;1.00;;;18.90;46.60;;;;;;5116974;27;45473;-78
2022/04/17 00:31:56;;;;;;;2.17;0.90;;;18.90;46.60;;;;;;5116128;27;45940;-78
2022/04/17 00:34:23;;;;;;;1.00;0.80;;;18.90;46.30;;;;;;5125498;27;46016;-78
2022/04/17 00:36:50;;;;;;;1.45;1.10;;;18.90;46.60;;;;;;5122029;27;45292;-78
2022/04/17 00:39:17;;;;;;;1.52;1.13;;;18.90;46.60;;;;;;5125436;27;45328;-78
2022/04/17 00:41:46;;;;;;;1.00;0.82;;;18.90;46.30;;;;;;5126746;27;45198;-78
2022/04/17 00:44:15;;;;;;;1.30;1.00;;;18.80;46.60;;;;;;5113957;27;45405;-78
2022/04/17 00:46:42;;;;;;;1.95;1.08;;;18.90;46.50;;;;;;5121806;27;45332;-78
2022/04/17 00:49:10;;;;;;;1.48;1.10;;;18.90;46.10;;;;;;5114631;27;45239;-78
2022/04/17 00:51:38;;;;;;;1.58;1.05;;;18.90;46.20;;;;;;5123394;27;45311;-78
2022/04/17 00:54:08;;;;;;;1.45;1.00;;;18.80;46.20;;;;;;5128190;27;45632;-78
2022/04/17 00:56:36;;;;;;;1.27;0.90;;;18.80;46.20;;;;;;5127311;27;45164;-78
2022/04/17 00:59:04;;;;;;;1.67;0.98;;;18.80;46.10;;;;;;5119259;27;45724;-78
2022/04/17 01:01:32;;;;;;;2.03;1.00;;;18.80;46.30;;;;;;5122533;27;45342;-78
2022/04/17 01:03:59;;;;;;;2.17;0.85;;;18.80;46.50;;;;;;5127088;27;45542;-77
2022/04/17 01:06:27;;;;;;;2.15;1.00;;;18.80;46.20;;;;;;5124544;27;45361;-77
2022/04/17 01:08:55;;;;;;;2.05;1.02;;;18.80;47.90;;;;;;5121756;27;45847;-77
2022/04/17 01:11:22;;;;;;;0.98;0.80;;;18.70;47.00;;;;;;5127823;27;46185;-77
2022/04/17 01:13:49;;;;;;;1.27;0.93;;;18.80;46.70;;;;;;5127706;27;45178;-77
2022/04/17 01:16:17;;;;;;;1.48;1.10;;;18.80;46.90;;;;;;5122706;27;45424;-77
2022/04/17 01:18:57;;;;;;;1.50;0.85;;;18.80;46.60;;;;;;5121776;27;45344;-77
2022/04/17 01:21:25;;;;;;;1.08;0.80;;;18.80;46.60;;;;;;5126482;27;48007;-77
2022/04/17 01:29:22;;;;;;;1.15;0.80;;;18.80;46.30;;;;;;5122181;27;45304;-78
2022/04/17 01:31:49;;;;;;;1.23;1.00;;;18.80;46.60;;;;;;5128483;27;47091;-77
2022/04/17 01:34:16;;;;;;;2.92;1.02;;;18.80;46.40;;;;;;5125835;27;45228;-77
2022/04/17 01:36:45;;;;;;;1.00;0.80;;;18.80;46.10;;;;;;5128604;27;45206;-77
2022/04/17 01:39:12;;;;;;;1.50;1.00;;;18.80;46.00;;;;;;5122342;27;45625;-78
2022/04/17 01:41:40;;;;;;;1.35;0.93;;;18.80;46.10;;;;;;5128013;27;48363;-77
2022/04/17 01:44:07;;;;;;;1.10;0.90;;;18.80;46.10;;;;;;5122198;27;45291;-78
2022/04/17 01:46:35;;;;;;;2.17;1.17;;;18.80;46.20;;;;;;5126702;27;45297;-78
2022/04/17 01:49:02;;;;;;;1.50;1.00;;;18.70;45.80;;;;;;5117469;27;45194;-78
2022/04/17 01:51:33;;;;;;;1.17;0.80;;;18.70;46.20;;;;;;5128015;27;47399;-78
2022/04/17 01:54:02;;;;;;;1.75;0.90;;;18.70;47.30;;;;;;5125240;27;45290;-78
2022/04/17 01:56:29;;;;;;;2.28;1.00;;;18.70;45.80;;;;;;5127751;27;45296;-78
2022/04/17 01:58:56;;;;;;;1.35;0.93;;;18.70;45.80;;;;;;5121606;27;45456;-78
2022/04/17 02:01:23;;;;;;;1.13;0.90;;;18.70;46.20;;;;;;5127170;27;47701;-78
2022/04/17 02:03:50;;;;;;;1.05;0.95;;;18.70;46.10;;;;;;5122602;27;45202;-77
2022/04/17 02:06:16;;;;;;;1.70;1.10;;;18.70;45.90;;;;;;5124654;27;45381;-78
2022/04/17 02:08:44;;;;;;;1.48;0.90;;;18.70;45.60;;;;;;5121683;27;45233;-78
2022/04/17 02:11:13;;;;;;;1.10;0.80;;;18.80;45.80;;;;;;5130089;27;46569;-78
2022/04/17 02:13:40;;;;;;;1.20;0.73;;;18.80;45.60;;;;;;5128366;27;46771;-78
2022/04/17 02:16:07;;;;;;;1.60;0.80;;;18.80;45.70;;;;;;5131304;27;45292;-78
2022/04/17 02:18:34;;;;;;;1.48;0.98;;;18.80;45.60;;;;;;5124931;27;45262;-77
2022/04/17 02:21:01;;;;;;;1.20;0.85;;;18.80;45.70;;;;;;5127765;27;46730;-77
2022/04/17 02:23:27;;;;;;;1.10;0.70;;;18.80;45.50;;;;;;5116901;27;45195;-77
2022/04/17 02:25:54;;;;;;;1.45;0.90;;;18.80;45.50;;;;;;5131636;27;45141;-78
2022/04/17 02:28:22;;;;;;;1.50;0.95;;;18.80;45.60;;;;;;5128559;27;45421;-77
2022/04/17 02:30:49;;;;;;;1.85;1.00;;;18.80;45.40;;;;;;5132703;27;46602;-78
2022/04/17 02:33:16;;;;;;;1.75;0.88;;;18.80;45.40;;;;;;5120094;27;45905;-77
2022/04/17 02:35:43;;;;;;;1.40;0.90;;;18.80;45.40;;;;;;5130765;27;45336;-77
2022/04/17 02:38:10;;;;;;;1.20;0.80;;;18.80;45.20;;;;;;5123786;27;45565;-78
2022/04/17 02:40:36;;;;;;;0.80;0.80;;;18.70;45.00;;;;;;5128844;27;46370;-77
2022/04/17 02:43:03;;;;;;;1.35;0.88;;;18.70;45.10;;;;;;5123692;27;45933;-78
2022/04/17 02:45:31;;;;;;;1.23;0.95;;;18.70;45.30;;;;;;5127435;27;45230;-78
2022/04/17 02:47:58;;;;;;;1.80;1.13;;;18.70;45.10;;;;;;5130699;27;45294;-77
2022/04/17 02:50:25;;;;;;;1.70;0.88;;;18.70;44.90;;;;;;5128638;27;45402;-77
2022/04/17 02:52:55;;;;;;;1.08;0.75;;;18.70;45.10;;;;;;5128494;27;45362;-78
2022/04/17 02:55:22;;;;;;;1.77;1.00;;;18.70;45.10;;;;;;5111282;27;45254;-77
2022/04/17 02:57:49;;;;;;;1.88;0.93;;;18.70;44.80;;;;;;5127607;27;45190;-77
2022/04/17 03:00:17;;;;;;;2.83;1.02;;;18.70;45.20;;;;;;5129449;27;45349;-78
2022/04/17 03:05:37;;;;;;;1.48;0.90;;;18.80;45.00;;;;;;5117272;27;45313;-77
2022/04/17 03:08:05;;;;;;;0.70;0.70;;;18.80;45.00;;;;;;5127464;27;45216;-78
2022/04/17 03:10:32;;;;;;;1.30;0.95;;;18.80;45.20;;;;;;5128475;27;47386;-78
2022/04/17 03:12:59;;;;;;;0.73;0.65;;;18.80;45.20;;;;;;5128999;27;45199;-77
2022/04/17 03:15:26;;;;;;;1.10;0.70;;;18.80;44.80;;;;;;5130349;27;45441;-77
2022/04/17 03:17:54;;;;;;;1.77;0.93;;;18.80;45.00;;;;;;5127143;27;45299;-78
2022/04/17 03:20:21;;;;;;;1.05;0.80;;;18.80;44.80;;;;;;5127319;27;47560;-77
2022/04/17 03:22:48;;;;;;;1.63;0.90;;;18.70;44.40;;;;;;5129972;27;45219;-78
2022/04/17 03:25:16;;;;;;;1.08;0.70;;;18.70;44.40;;;;;;5127125;27;45688;-77
2022/04/17 03:27:46;;;;;;;1.38;0.75;;;18.70;44.50;;;;;;5126231;27;45533;-77
2022/04/17 03:30:14;;;;;;;1.27;0.70;;;18.70;44.40;;;;;;5129046;27;46146;-77
2022/04/17 03:32:42;;;;;;;1.00;0.80;;;18.70;44.60;;;;;;5126433;27;45312;-77
2022/04/17 03:35:10;;;;;;;1.27;0.80;;;18.70;44.70;;;;;;5128368;27;45200;-77
2022/04/17 03:37:38;;;;;;;1.27;1.02;;;18.70;44.60;;;;;;5126376;27;45288;-77
2022/04/17 03:40:06;;;;;;;0.88;0.57;;;18.70;44.90;;;;;;5129093;27;47719;-78
2022/04/17 03:42:35;;;;;;;1.20;0.93;;;18.70;44.80;;;;;;5125264;27;45392;-77
2022/04/17 03:45:02;;;;;;;1.15;0.88;;;18.70;44.50;;;;;;5128585;27;45132;-77
2022/04/17 03:47:29;;;;;;;0.90;0.70;;;18.70;44.60;;;;;;5129318;27;45240;-77
2022/04/17 03:49:56;;;;;;;1.58;0.80;;;18.70;44.80;;;;;;5127738;27;47917;-77
2022/04/17 03:52:24;;;;;;;1.45;0.80;;;18.70;44.60;;;;;;5129133;27;45677;-77
2022/04/17 03:54:51;;;;;;;2.03;0.82;;;18.70;44.80;;;;;;5129676;27;45305;-77
2022/04/17 03:57:18;;;;;;;0.70;0.60;;;18.80;44.60;;;;;;5127359;27;45300;-77
2022/04/17 03:59:45;;;;;;;0.70;0.70;;;18.80;44.80;;;;;;5122882;27;45660;-77
2022/04/17 04:02:11;;;;;;;1.95;0.77;;;18.70;44.50;;;;;;5122011;27;45356;-77
2022/04/17 04:04:38;;;;;;;1.20;0.80;;;18.80;44.80;;;;;;5125424;27;45509;-77
2022/04/17 04:07:05;;;;;;;0.88;0.70;;;18.80;44.60;;;;;;5119159;27;45374;-77
2022/04/17 04:09:33;;;;;;;1.52;0.80;;;18.70;44.30;;;;;;5126299;27;45465;-77
2022/04/17 04:12:00;;;;;;;1.42;0.77;;;18.70;44.30;;;;;;5125389;27;45752;-77
2022/04/17 04:14:27;;;;;;;1.02;0.70;;;18.70;44.20;;;;;;5129106;27;45250;-78
2022/04/17 04:16:53;;;;;;;1.15;0.85;;;18.70;43.70;;;;;;5128525;27;45221;-78
2022/04/17 04:19:20;;;;;;;1.05;0.80;;;18.70;44.00;;;;;;5125572;27;47129;-77
2022/04/17 04:21:49;;;;;;;1.70;0.90;;;18.70;44.10;;;;;;5127468;27;45639;-77
2022/04/17 04:24:19;;;;;;;2.00;0.90;;;18.70;44.00;;;;;;5125780;27;45309;-77
2022/04/17 04:28:32;;;;;;;1.95;0.80;;;18.70;45.40;;;;;;5121343;27;45369;-77
2022/04/17 04:29:34;;;;;;;1.20;0.73;;;18.70;43.90;;;;;;5119250;27;46746;-77
2022/04/17 04:32:01;;;;;;;1.08;0.70;;;18.70;44.10;;;;;;5127910;27;45302;-77
2022/04/17 04:34:28;;;;;;;0.98;0.90;;;18.70;44.10;;;;;;5118840;27;45289;-77
2022/04/17 04:36:55;;;;;;;0.70;0.70;;;18.70;43.90;;;;;;5115541;27;45319;-77
2022/04/17 04:39:22;;;;;;;0.88;0.73;;;18.70;44.10;;;;;;5126111;27;45480;-76
2022/04/17 04:41:50;;;;;;;0.90;0.75;;;18.70;43.70;;;;;;5122625;27;45320;-76
2022/04/17 04:44:17;;;;;;;0.73;0.60;;;18.70;43.70;;;;;;5122626;27;45255;-76
2022/04/17 04:46:43;;;;;;;1.85;0.82;;;18.70;44.10;;;;;;5123812;27;45165;-76
2022/04/17 04:51:53;;;;;;;0.73;0.70;;;18.70;44.30;;;;;;5122279;27;45267;-76
2022/04/17 04:54:20;;;;;;;0.90;0.70;;;18.70;44.00;;;;;;5117298;27;45238;-77
2022/04/17 04:56:47;;;;;;;1.02;0.80;;;18.70;43.90;;;;;;5120709;27;45150;-76
2022/04/17 04:59:15;;;;;;;0.80;0.75;;;18.70;44.40;;;;;;5122294;27;46207;-77
2022/04/17 05:01:42;;;;;;;2.00;0.90;;;18.70;43.80;;;;;;5122941;27;45239;-76
2022/04/17 05:04:09;;;;;;;1.10;0.77;;;18.70;44.30;;;;;;5120218;27;45349;-76
2022/04/17 05:06:35;;;;;;;1.50;0.93;;;18.60;43.90;;;;;;5116201;27;45202;-76
2022/04/17 05:09:02;;;;;;;1.90;0.80;;;18.70;43.60;;;;;;5116410;27;47420;-77
2022/04/17 05:11:29;;;;;;;1.65;0.98;;;18.70;44.40;;;;;;5128812;27;45230;-77
2022/04/17 05:13:56;;;;;;;1.50;0.68;;;18.60;44.20;;;;;;5122072;27;45351;-76
2022/04/17 05:16:24;;;;;;;1.50;0.70;;;18.60;44.10;;;;;;5126509;27;45166;-76
2022/04/17 05:19:18;;;;;;;0.75;0.70;;;18.60;43.90;;;;;;5117911;27;47428;-76
2022/04/17 05:21:37;;;;;;;1.10;0.60;;;18.60;43.70;;;;;;5124977;27;45257;-77
2022/04/17 05:24:05;;;;;;;1.00;0.70;;;18.60;43.70;;;;;;5124004;27;45371;-77
2022/04/17 05:26:31;;;;;;;1.02;0.73;;;18.70;43.90;;;;;;5129170;27;45456;-77
2022/04/17 05:29:02;;;;;;;0.82;0.68;;;18.70;43.90;;;;;;5127390;27;47166;-77
2022/04/17 05:31:30;;;;;;;1.25;0.70;;;18.70;43.70;;;;;;5127326;27;45850;-76
2022/04/17 05:33:57;;;;;;;1.20;0.70;;;18.70;43.70;;;;;;5122650;27;45258;-77
2022/04/17 05:36:24;;;;;;;1.45;0.70;;;18.70;43.70;;;;;;5124876;27;45697;-77
2022/04/17 05:38:53;;;;;;;1.92;0.80;;;18.70;43.70;;;;;;5122073;27;48020;-77
2022/04/17 05:41:20;;;;;;;0.82;0.70;;;18.70;43.70;;;;;;5126527;27;45260;-78
2022/04/17 05:43:48;;;;;;;1.15;0.70;;;18.70;43.70;;;;;;5126263;27;45241;-77
2022/04/17 05:46:15;;;;;;;1.50;0.70;;;18.70;43.70;;;;;;5132348;27;45539;-78
2022/04/17 05:48:43;;;;;;;0.82;0.70;;;18.70;43.50;;;;;;5128958;27;46264;-78
2022/04/17 05:51:10;;;;;;;1.33;0.50;;;18.70;43.70;;;;;;5131590;27;45349;-78
2022/04/17 05:53:37;;;;;;;0.57;0.57;;;18.70;43.80;;;;;;5124571;27;45381;-78
2022/04/17 05:56:05;;;;;;;0.98;0.60;;;18.70;43.90;;;;;;5131835;27;45237;-76
2022/04/17 05:58:32;;;;;;;0.75;0.57;;;18.60;43.70;;;;;;5124720;27;47393;-76
2022/04/17 06:01:02;;;;;;;0.80;0.50;;;18.60;44.00;;;;;;5119278;27;45412;-78
2022/04/17 06:03:29;;;;;;;1.13;0.70;;;18.60;44.10;;;;;;5127458;27;45321;-77
2022/04/17 06:05:57;;;;;;;1.10;0.70;;;18.60;43.90;;;;;;5124874;27;45711;-78
2022/04/17 06:08:24;;;;;;;1.23;0.63;;;18.60;43.70;;;;;;5126180;27;46593;-78
2022/04/17 06:10:51;;;;;;;1.20;0.68;;;18.60;43.60;;;;;;5129238;27;45244;-77
2022/04/17 06:13:18;;;;;;;1.10;0.60;;;18.60;43.90;;;;;;5127949;27;45227;-77
2022/04/17 06:15:45;;;;;;;1.13;0.80;;;18.60;44.00;;;;;;5126820;27;45526;-77
2022/04/17 06:18:12;;;;;;;1.13;0.75;;;18.70;44.30;;;;;;5125854;27;46202;-78
2022/04/17 06:20:39;;;;;;;1.00;0.60;;;18.70;44.30;;;;;;5129788;27;45440;-77
2022/04/17 06:23:07;;;;;;;1.03;0.70;;;18.70;44.10;;;;;;5127525;27;45250;-77
2022/04/17 06:25:34;;;;;;;1.02;0.70;;;18.70;44.60;;;;;;5125104;27;45343;-77
2022/04/17 06:28:01;;;;;;;0.70;0.50;;;18.70;44.20;;;;;;5128059;27;47090;-77
2022/04/17 06:30:29;;;;;;;1.15;0.60;;;18.70;44.10;;;;;;5122157;27;45132;-77
2022/04/17 06:32:56;;;;;;;1.02;0.80;;;18.70;43.90;;;;;;5128261;27;45278;-76
2022/04/17 06:35:23;;;;;;;2.13;0.65;;;18.70;44.10;;;;;;5117630;27;45411;-77
2022/04/17 06:37:51;;;;;;;1.85;0.80;;;18.70;44.10;;;;;;5129538;27;45364;-77
2022/04/17 06:40:21;;;;;;;1.15;0.63;;;18.70;44.10;;;;;;5126481;27;45656;-77
2022/04/17 06:42:50;;;;;;;1.27;0.80;;;18.70;44.10;;;;;;5130495;27;45152;-77
2022/04/17 06:45:17;;;;;;;0.73;0.45;;;18.70;44.10;;;;;;5125220;27;45278;-75
2022/04/17 06:47:45;;;;;;;1.13;0.70;;;18.70;44.30;;;;;;5125497;27;45429;-76
2022/04/17 06:50:12;;;;;;;1.45;0.93;;;18.70;44.40;;;;;;5127526;27;45333;-76
2022/04/17 06:52:39;;;;;;;2.33;0.80;;;18.70;44.30;;;;;;5130441;27;45242;-75
2022/04/17 06:55:11;;;;;;;1.35;0.73;;;18.70;44.40;;;;;;5127500;27;45352;-76
2022/04/17 06:57:44;;;;;;;1.02;0.70;;;18.70;44.10;;;;;;5126614;27;46234;-75
2022/04/17 07:00:12;;;;;;;1.00;0.52;;;18.70;44.30;;;;;;5125380;27;45352;-76
2022/04/17 07:02:39;;;;;;;1.67;0.70;;;18.70;44.40;;;;;;5125135;27;45313;-76
2022/04/17 07:05:08;;;;;;;0.77;0.70;;;18.70;44.30;;;;;;5128141;27;45224;-75
2022/04/17 07:07:35;;;;;;;0.95;0.60;;;18.70;44.20;;;;;;5125903;27;45396;-76
2022/04/17 07:10:02;;;;;;;1.08;0.70;;;18.70;44.10;;;;;;5129327;27;45180;-77
2022/04/17 07:12:30;;;;;;;1.17;0.63;;;18.70;44.30;;;;;;5129837;27;45289;-76
2022/04/17 07:14:59;;;;;;;1.17;0.70;;;18.70;44.20;;;;;;5126757;27;45497;-76
2022/04/17 07:17:33;;;;;;;1.17;0.65;;;18.70;44.30;;;;;;5126932;27;46172;-77
2022/04/17 07:20:00;;;;;;;1.13;0.60;;;18.70;44.40;;;;;;5116095;27;45173;-77
2022/04/17 07:22:27;;;;;;;1.23;0.70;;;18.70;44.40;;;;;;5123066;27;45346;-75
2022/04/17 07:24:54;;;;;;;1.30;0.60;;;18.70;44.40;;;;;;5127124;27;45412;-76
2022/04/17 07:27:21;;;;;;;0.85;0.60;;;18.70;44.30;;;;;;5121759;27;47663;-75
2022/04/17 07:29:48;;;;;;;2.00;0.68;;;18.70;44.10;;;;;;5124174;27;45493;-76
2022/04/17 07:32:16;;;;;;;1.67;0.70;;;18.70;43.80;;;;;;5129733;27;45274;-74
2022/04/17 07:34:43;;;;;;;2.08;0.80;;;18.70;44.00;;;;;;5122485;27;45357;-74
2022/04/17 07:37:10;;;;;;;1.27;0.60;;;18.70;43.90;;;;;;5122297;27;46729;-75
2022/04/17 07:39:37;;;;;;;0.60;0.50;;;18.80;43.70;;;;;;5129303;27;45164;-77
2022/04/17 07:42:04;;;;;;;0.90;0.65;;;18.80;43.20;;;;;;5127432;27;45347;-77
2022/04/17 07:44:32;;;;;;;0.70;0.70;;;18.80;42.90;;;;;;5118974;27;45113;-77
2022/04/17 07:46:59;;;;;;;1.38;0.60;;;18.90;43.00;;;;;;5118168;27;47251;-76
2022/04/17 07:49:27;;;;;;;0.60;0.60;;;18.90;43.00;;;;;;5127072;27;45286;-77
2022/04/17 07:51:55;;;;;;;1.55;0.73;;;18.80;43.10;;;;;;5123565;27;45357;-77
2022/04/17 07:54:22;;;;;;;1.30;0.63;;;18.90;42.90;;;;;;5119502;27;45433;-77
2022/04/17 07:56:49;;;;;;;1.23;0.77;;;18.80;42.80;;;;;;5117111;27;46624;-76
2022/04/17 07:59:16;;;;;;;1.27;0.73;;;18.80;43.30;;;;;;5118739;27;45305;-76
2022/04/17 08:01:45;;;;;;;0.60;0.57;;;18.80;42.70;;;;;;5116111;27;46633;-76
2022/04/17 08:04:12;;;;;;;1.88;0.80;;;18.90;42.60;;;;;;5117201;27;45538;-76
2022/04/17 08:06:41;;;;;;;1.10;0.60;;;18.90;43.10;;;;;;5124478;27;45461;-75
2022/04/17 08:09:07;;;;;;;1.33;0.73;;;18.80;43.40;;;;;;5112114;27;45349;-75
2022/04/17 08:11:34;;;;;;;0.70;0.60;;;18.90;43.60;;;;;;5116601;27;46028;-76
2022/04/17 08:14:01;;;;;;;0.75;0.50;;;18.80;43.60;;;;;;5120832;27;45459;-76
2022/04/17 08:16:28;;;;;;;1.98;0.90;;;18.80;43.70;;;;;;5115445;27;46188;-77
2022/04/17 08:18:55;;;;;;;0.50;0.45;;;18.80;43.70;;;;;;5127050;27;46465;-77
2022/04/17 08:21:21;;;;;;;1.80;0.80;;;18.70;43.70;;;;;;5128513;27;45226;-76
2022/04/17 08:23:50;;;;;;;0.95;0.65;;;18.70;43.80;;;;;;5124090;27;45225;-77
2022/04/17 08:26:17;;;;;;;0.70;0.40;;;18.70;43.70;;;;;;5125232;27;46453;-77
2022/04/17 08:28:43;;;;;;;0.60;0.60;;;18.80;43.90;;;;;;5127965;27;45177;-76
2022/04/17 08:31:11;;;;;;;0.77;0.60;;;18.70;43.70;;;;;;5121469;27;45297;-77
2022/04/17 08:33:38;;;;;;;0.47;0.47;;;18.70;44.00;;;;;;5122408;27;45311;-77
2022/04/17 08:36:05;;;;;;;0.70;0.63;;;18.70;43.80;;;;;;5117060;27;46179;-75
2022/04/17 08:38:32;;;;;;;1.98;0.65;;;18.70;43.40;;;;;;5122489;27;45230;-77
2022/04/17 08:41:05;;;;;;;1.77;0.70;;;18.70;43.20;;;;;;5128978;27;45261;-77
2022/04/17 08:43:32;;;;;;;1.63;0.70;;;18.80;43.30;;;;;;5128782;27;45440;-77
2022/04/17 08:45:59;;;;;;;0.60;0.50;;;18.80;43.30;;;;;;5117923;27;47527;-77
2022/04/17 08:48:27;;;;;;;1.17;0.70;;;18.80;43.10;;;;;;5127667;27;45637;-76
2022/04/17 08:50:56;;;;;;;2.00;0.93;;;18.80;43.30;;;;;;5127626;27;45508;-76
2022/04/17 08:53:23;;;;;;;0.98;0.45;;;18.80;43.10;;;;;;5128563;27;45269;-75
2022/04/17 08:55:51;;;;;;;0.75;0.60;;;18.80;43.00;;;;;;5127661;27;46157;-74
2022/04/17 08:58:19;;;;;;;0.82;0.65;;;18.80;43.30;;;;;;5126936;27;45132;-75
2022/04/17 09:00:46;;;;;;;0.93;0.65;;;18.80;43.40;;;;;;5128375;27;45240;-74
2022/04/17 09:03:14;;;;;;;0.55;0.50;;;18.80;43.60;;;;;;5121484;27;45162;-75
2022/04/17 09:05:40;;;;;;;1.13;0.60;;;18.80;43.60;;;;;;5119660;27;46214;-75
2022/04/17 09:08:15;;;;;;;2.28;0.88;;;18.80;43.50;;;;;;5126139;27;45463;-77
2022/04/17 09:10:52;;;;;;;1.10;0.75;;;18.80;43.10;;;;;;5126500;27;45706;-76
2022/04/17 09:13:27;;;;;;;1.92;0.88;;;18.80;42.70;;;;;;5123239;27;45470;-76
2022/04/17 09:15:55;;;;;;;1.10;0.65;;;18.80;42.30;;;;;;5119109;27;45711;-76
2022/04/17 09:18:22;;;;;;;0.90;0.70;;;18.80;42.40;;;;;;5118570;27;45370;-75
2022/04/17 09:20:50;;;;;;;1.77;0.90;;;18.80;43.60;;;;;;5116693;27;45898;-76
2022/04/17 09:23:33;;;;;;;1.17;0.80;;;18.80;43.10;;;;;;5117257;27;45223;-75
2022/04/17 09:26:00;;;;;;;1.27;0.60;;;18.80;42.50;;;;;;5120174;27;46533;-74
2022/04/17 09:28:33;;;;;;;0.95;0.65;;;18.80;42.30;;;;;;5118897;27;46739;-75
2022/04/17 09:31:01;;;;;;;1.25;0.43;;;18.80;42.60;;;;;;5118619;27;45259;-75
2022/04/17 09:33:37;;;;;;;0.95;0.55;;;18.90;42.70;;;;;;5115596;27;45461;-75
2022/04/17 09:36:04;;;;;;;1.08;0.60;;;18.90;43.00;;;;;;5113564;27;45494;-75
2022/04/17 09:38:33;;;;;;;1.25;0.60;;;18.90;42.90;;;;;;5114561;27;45398;-74
2022/04/17 09:41:06;;;;;;;1.75;0.70;;;18.90;42.90;;;;;;5119007;27;45275;-75
2022/04/17 09:43:35;;;;;;;33.10;1.45;;;18.90;42.70;;;;;;5121867;27;45510;-79
2022/04/17 09:46:04;;;;;;;24.42;2.03;;;18.90;43.40;;;;;;5121313;27;45344;-74
2022/04/17 09:48:32;;;;;;;5.35;1.33;;;19.00;44.40;;;;;;5121387;27;45351;-74
2022/04/17 09:51:00;;;;;;;10.45;1.33;;;19.00;42.60;;;;;;5120427;27;45225;-74
2022/04/17 09:53:34;;;;;;;3.67;1.08;;;18.90;42.10;;;;;;5126774;27;45194;-75
2022/04/17 09:56:09;;;;;;;9.75;1.10;;;18.90;41.90;;;;;;5116666;27;46546;-75
2022/04/17 09:58:39;;;;;;;5.88;1.20;;;18.90;41.70;;;;;;5120418;27;45447;-75
2022/04/17 10:01:07;;;;;;;2.05;1.30;;;18.90;41.20;;;;;;5123097;27;45261;-75
2022/04/17 10:03:38;;;;;;;4.78;1.20;;;18.80;41.20;;;;;;5118291;27;45819;-75
2022/04/17 10:06:05;;;;;;;3.50;1.15;;;18.80;40.70;;;;;;5122375;27;46245;-74
2022/04/17 10:08:33;;;;;;;6.30;1.10;;;18.80;40.50;;;;;;5126371;27;45144;-76
2022/04/17 10:11:01;;;;;;;1.05;0.70;;;18.90;40.70;;;;;;5122203;27;45453;-75
2022/04/17 10:13:30;;;;;;;5.88;1.00;;;18.90;40.60;;;;;;5114895;27;45479;-75
2022/04/17 10:16:00;;;;;;;2.88;1.20;;;18.90;40.20;;;;;;5113909;27;45971;-75
2022/04/17 10:18:33;;;;;;;2.88;0.65;;;19.00;40.20;;;;;;5118622;27;45251;-75
2022/04/17 10:21:00;;;;;;;1.70;0.73;;;19.00;40.10;;;;;;5121821;27;45192;-75
2022/04/17 10:23:29;;;;;;;3.85;0.73;;;19.00;40.00;;;;;;5123857;27;46276;-76
2022/04/17 10:25:57;;;;;;;3.05;1.00;;;18.90;39.90;;;;;;5121335;27;47099;-75
2022/04/17 10:28:27;;;;;;;3.53;0.80;;;18.90;40.00;;;;;;5130450;27;45217;-75
2022/04/17 10:31:06;;;;;;;3.13;0.88;;;19.00;39.80;;;;;;5130067;27;45272;-75
2022/04/17 10:33:47;;;;;;;1.17;0.60;;;19.00;39.60;;;;;;5126687;27;45317;-74
2022/04/17 10:36:28;;;;;;;1.48;0.77;;;19.00;39.40;;;;;;5128733;27;47951;-75
2022/04/17 10:39:10;;;;;;;1.80;0.88;;;19.10;39.50;;;;;;5125376;27;45354;-75
2022/04/17 10:41:37;;;;;;;4.00;0.80;;;19.10;39.40;;;;;;5124127;27;45346;-75
2022/04/17 10:44:05;;;;;;;0.77;0.52;;;19.10;39.40;;;;;;5127724;27;45237;-75
2022/04/17 10:46:46;;;;;;;1.20;0.68;;;19.10;39.40;;;;;;5127534;27;47963;-75
2022/04/17 10:49:13;;;;;;;0.93;0.65;;;19.10;39.10;;;;;;5121804;27;45253;-75
2022/04/17 10:51:49;;;;;;;2.92;0.57;;;19.10;39.40;;;;;;5130413;27;45202;-75
2022/04/17 10:54:16;;;;;;;1.02;0.70;;;19.00;39.30;;;;;;5130316;27;45155;-75
2022/04/17 10:56:58;;;;;;;2.05;0.82;;;19.00;39.30;;;;;;5128386;27;45535;-75
2022/04/17 10:59:28;;;;;;;4.13;0.63;;;19.00;38.90;;;;;;5123140;27;45266;-75
2022/04/17 11:02:01;;;;;;;1.67;0.75;;;19.00;39.30;;;;;;5124240;27;45348;-76
2022/04/17 11:04:30;;;;;;;1.30;0.73;;;19.00;39.30;;;;;;5121357;27;46237;-76
2022/04/17 11:07:19;;;;;;;1.13;0.68;;;18.90;39.10;;;;;;5127571;27;46135;-75
2022/04/17 11:09:47;;;;;;;0.50;0.40;;;18.90;38.70;;;;;;5128727;27;45195;-76
2022/04/17 11:12:27;;;;;;;1.35;0.70;;;18.90;39.10;;;;;;5120757;27;45250;-75
2022/04/17 11:14:55;;;;;;;0.68;0.50;;;18.90;38.70;;;;;;5125722;27;45409;-75
2022/04/17 11:17:24;;;;;;;0.88;0.45;;;18.90;39.00;;;;;;5117571;27;46016;-75
2022/04/17 11:19:55;;;;;;;0.90;0.60;;;18.90;38.90;;;;;;5120737;27;45628;-75
2022/04/17 11:22:27;;;;;;;1.35;0.68;;;18.90;38.90;;;;;;5124070;27;45620;-75
2022/04/17 11:25:06;;;;;;;1.77;1.05;;;18.90;38.70;;;;;;5124677;27;46253;-75
2022/04/17 11:27:40;;;;;;;2.28;1.00;;;18.90;38.70;;;;;;5127390;27;46985;-76
2022/04/17 11:30:09;;;;;;;2.15;0.90;;;18.90;38.70;;;;;;5121077;27;45247;-76
2022/04/17 11:32:52;;;;;;;2.67;1.17;;;18.90;38.80;;;;;;5126756;27;45278;-75
2022/04/17 11:35:21;;;;;;;2.10;1.02;;;19.00;38.80;;;;;;5118174;27;45226;-75
2022/04/17 11:37:57;;;;;;;2.17;1.15;;;19.00;38.90;;;;;;5128200;27;46478;-75
2022/04/17 11:40:27;;;;;;;0.90;0.77;;;18.90;38.70;;;;;;5117784;27;45208;-75
2022/04/17 11:42:55;;;;;;;1.52;0.88;;;19.00;38.90;;;;;;5122785;27;45261;-75
2022/04/17 11:45:25;;;;;;;1.15;0.73;;;19.00;39.00;;;;;;5124398;27;45330;-75
2022/04/17 11:48:03;;;;;;;2.22;0.90;;;19.00;38.80;;;;;;5130231;27;47067;-75
2022/04/17 11:50:30;;;;;;;1.42;0.90;;;19.00;38.80;;;;;;5121048;27;45362;-75
2022/04/17 11:52:59;;;;;;;0.90;0.80;;;19.00;38.80;;;;;;5126406;27;45255;-75
2022/04/17 11:55:28;;;;;;;1.00;0.70;;;19.00;38.60;;;;;;5128988;27;45290;-75
2022/04/17 11:57:56;;;;;;;1.60;0.82;;;18.90;38.80;;;;;;5119852;27;45396;-75
2022/04/17 12:00:23;;;;;;;3.22;1.00;;;19.00;38.80;;;;;;5120469;27;46221;-74
2022/04/17 12:02:57;;;;;;;1.35;0.88;;;19.00;38.80;;;;;;5116439;27;45375;-77
2022/04/17 12:05:24;;;;;;;4.63;0.90;;;18.90;38.90;;;;;;5123264;27;45547;-75
2022/04/17 12:08:01;;;;;;;2.13;1.00;;;18.90;39.30;;;;;;5122451;27;47399;-75
2022/04/17 12:10:29;;;;;;;0.98;0.70;;;19.00;39.40;;;;;;5121629;27;45492;-75
2022/04/17 12:12:55;;;;;;;2.13;0.75;;;18.90;39.30;;;;;;5121677;27;45674;-76
2022/04/17 12:15:22;;;;;;;2.08;0.90;;;18.90;39.60;;;;;;5125042;27;45341;-76
2022/04/17 12:17:59;;;;;;;1.00;0.68;;;18.90;39.70;;;;;;5116815;27;46249;-76
2022/04/17 12:20:27;;;;;;;1.23;0.80;;;18.90;39.70;;;;;;5126680;27;45860;-76
2022/04/17 12:22:54;;;;;;;1.33;0.75;;;18.90;40.00;;;;;;5126009;27;45250;-76
2022/04/17 12:25:23;;;;;;;2.00;0.60;;;18.90;40.20;;;;;;5121652;27;45330;-75
2022/04/17 12:27:51;;;;;;;1.27;0.60;;;18.90;40.30;;;;;;5119691;27;47434;-75
2022/04/17 12:30:20;;;;;;;1.00;0.60;;;18.90;40.20;;;;;;5112281;27;45306;-75
2022/04/17 12:32:48;;;;;;;1.60;0.80;;;19.00;40.40;;;;;;5108155;27;45412;-76
2022/04/17 12:35:24;;;;;;;1.63;0.80;;;19.00;40.30;;;;;;5109331;27;45346;-77
2022/04/17 12:38:01;;;;;;;2.08;0.70;;;19.00;40.30;;;;;;5118730;27;45962;-76
2022/04/17 12:40:28;;;;;;;1.67;0.80;;;19.00;40.50;;;;;;5126225;27;45406;-75
2022/04/17 12:43:14;;;;;;;0.55;0.52;;;19.00;40.50;;;;;;5127583;27;45235;-75
2022/04/17 12:45:53;;;;;;;0.93;0.60;;;19.00;40.30;;;;;;5127554;27;45498;-76
2022/04/17 12:48:25;;;;;;;1.30;0.60;;;19.00;40.50;;;;;;5124115;27;45569;-76
2022/04/17 12:50:58;;;;;;;1.73;0.60;;;19.00;40.60;;;;;;5126737;27;45400;-75
2022/04/17 12:53:25;;;;;;;1.02;0.63;;;18.90;40.50;;;;;;5129068;27;45162;-75
2022/04/17 12:55:53;;;;;;;0.60;0.45;;;18.90;40.60;;;;;;5129332;27;45254;-75
2022/04/17 12:58:20;;;;;;;0.60;0.40;;;19.00;40.80;;;;;;5126549;27;46549;-76
2022/04/17 13:00:56;;;;;;;1.15;0.65;;;19.00;40.80;;;;;;5136969;27;45242;-76
2022/04/17 13:03:34;;;;;;;1.80;0.70;;;19.00;40.90;;;;;;5130326;27;45360;-76